Ogaki, Japan
Current Conditions -  °F | °C
As of 9:28 PM on Wednesday 26 Nov 2014 (Local Time) from RJNG Reporting Station
Broken Clouds Broken Clouds  
Wind Chill: 50°   Ceiling: 8000
Heat Index: 50°   Visibility: 6mi
Dew Point: 50°   Wind: 1mph
Humidity: 100%   Direction: 50°NE
Pressure: 29.91"   Gusts: NA
Location:  35.37°N, 136.61°E
Report Text: RJNG 261228Z 05001KT 9999 FEW030 SCT045 BKN080 10/10 Q1013 RMK 2CU030 4SC045 6AC080 A2993
Loading
Personal Weather Stations






























Interactive Weather Map New forecast layout! Learn more

10-Day Weather Forecast

Advertisements
Track Severe Weather on mobile